Time;durP1;ratioP1;P1;durP2;ratioP2;P2;SDS_P1;SDS_P2;PMS_P1;PMS_P2;Temp;Humidity;BMP_temperature;BMP_pressure;BME280_temperature;BME280_humidity;BME280_pressure;Samples;Min_cycle;Max_cycle;Signal;HPM_P1;HPM_P2
2022/04/24 00:00:01;;;;;;;8.97;6.23;;;9.70;91.60;;;;;;4123135;28;20213;-77
2022/04/24 00:02:03;;;;;;;11.00;7.37;;;9.70;92.10;;;;;;4125753;28;20216;-77
2022/04/24 00:04:05;;;;;;;10.40;7.37;;;9.70;92.10;;;;;;4129188;28;20219;-77
2022/04/24 00:06:06;;;;;;;11.23;7.43;;;9.70;92.40;;;;;;4127241;28;20213;-78
2022/04/24 00:08:09;;;;;;;11.50;7.33;;;9.70;92.30;;;;;;4123376;28;21053;-78
2022/04/24 00:10:12;;;;;;;13.87;7.23;;;9.60;92.40;;;;;;4123294;28;20209;-79
2022/04/24 00:12:15;;;;;;;12.23;7.33;;;9.60;92.60;;;;;;4125107;28;20476;-77
2022/04/24 00:14:17;;;;;;;10.80;7.50;;;9.60;92.80;;;;;;4127398;28;20491;-77
2022/04/24 00:16:19;;;;;;;11.23;6.77;;;9.60;93.10;;;;;;4134065;28;20208;-77
2022/04/24 00:18:21;;;;;;;12.63;7.40;;;9.50;93.20;;;;;;4127123;28;20216;-77
2022/04/24 00:20:23;;;;;;;10.83;7.47;;;9.50;93.40;;;;;;4123442;28;20525;-77
2022/04/24 00:22:24;;;;;;;10.00;6.67;;;9.50;93.50;;;;;;4128652;28;20212;-78
2022/04/24 00:24:26;;;;;;;11.73;7.70;;;9.50;93.90;;;;;;4129684;28;20514;-76
2022/04/24 00:26:30;;;;;;;11.47;7.67;;;9.50;94.20;;;;;;4124645;28;20208;-77
2022/04/24 00:28:31;;;;;;;11.33;7.73;;;9.40;94.40;;;;;;4126568;28;20299;-77
2022/04/24 00:30:33;;;;;;;10.50;7.33;;;9.40;94.60;;;;;;4128611;28;21340;-77
2022/04/24 00:32:35;;;;;;;13.93;7.50;;;9.30;94.90;;;;;;4129795;28;20494;-78
2022/04/24 00:34:37;;;;;;;12.00;7.47;;;9.30;95.00;;;;;;4124304;28;20499;-78
2022/04/24 00:36:38;;;;;;;11.67;7.10;;;9.30;95.20;;;;;;4129286;28;20510;-78
2022/04/24 00:38:40;;;;;;;14.57;8.03;;;9.20;95.70;;;;;;4128748;28;20471;-78
2022/04/24 00:40:45;;;;;;;13.30;8.00;;;9.20;95.90;;;;;;4126820;28;20470;-77
2022/04/24 00:42:49;;;;;;;11.80;7.37;;;9.20;96.20;;;;;;4124622;28;20854;-76
2022/04/24 00:44:51;;;;;;;14.70;8.73;;;9.30;96.50;;;;;;4124962;28;20488;-77
2022/04/24 00:46:56;;;;;;;12.07;7.80;;;9.10;96.50;;;;;;4123307;28;20468;-78
2022/04/24 00:48:58;;;;;;;11.73;8.03;;;9.10;96.70;;;;;;4125198;28;20528;-77
2022/04/24 00:50:59;;;;;;;10.60;7.33;;;9.00;97.00;;;;;;4125224;28;20559;-77
2022/04/24 00:53:01;;;;;;;11.73;7.67;;;9.00;97.30;;;;;;4127261;28;20499;-75
2022/04/24 00:55:03;;;;;;;11.33;7.70;;;9.00;97.70;;;;;;4125724;28;20529;-76
2022/04/24 00:57:07;;;;;;;13.40;8.20;;;8.90;97.90;;;;;;4122954;28;21517;-77
2022/04/24 00:59:12;;;;;;;13.50;8.60;;;8.90;98.30;;;;;;4124272;28;20471;-77
2022/04/24 01:01:13;;;;;;;12.00;8.50;;;8.90;98.60;;;;;;4127318;28;20973;-77
2022/04/24 01:03:15;;;;;;;13.07;8.70;;;8.90;99.00;;;;;;4127547;28;21223;-77
2022/04/24 01:05:18;;;;;;;13.37;8.60;;;8.80;99.10;;;;;;4124964;28;20565;-76
2022/04/24 01:07:19;;;;;;;13.30;8.50;;;8.80;99.30;;;;;;4124267;28;20464;-78
2022/04/24 01:09:22;;;;;;;14.10;8.80;;;8.80;99.70;;;;;;4130568;28;20480;-77
2022/04/24 01:11:24;;;;;;;16.07;9.23;;;8.80;99.90;;;;;;4125035;28;20478;-76
2022/04/24 01:13:26;;;;;;;17.23;9.73;;;8.70;99.90;;;;;;4127255;28;20491;-77
2022/04/24 01:15:29;;;;;;;16.07;9.40;;;8.70;99.90;;;;;;4124452;28;20496;-77
2022/04/24 01:17:31;;;;;;;14.20;8.87;;;8.70;99.90;;;;;;4123476;28;20480;-77
2022/04/24 01:19:33;;;;;;;14.60;9.07;;;8.70;99.90;;;;;;4126987;28;20476;-77
2022/04/24 01:21:37;;;;;;;13.13;8.70;;;8.60;99.90;;;;;;4123317;28;21174;-77
2022/04/24 01:23:39;;;;;;;16.10;8.63;;;8.60;99.90;;;;;;4127270;28;20511;-77
2022/04/24 01:25:41;;;;;;;11.57;7.73;;;8.60;99.90;;;;;;4122296;28;21061;-77
2022/04/24 01:27:43;;;;;;;11.83;8.37;;;8.60;99.90;;;;;;4122377;28;20483;-77
2022/04/24 01:29:45;;;;;;;14.30;9.23;;;8.50;99.90;;;;;;4125190;28;20486;-78
2022/04/24 01:31:48;;;;;;;15.03;9.13;;;8.50;99.90;;;;;;4125240;28;20576;-77
2022/04/24 01:33:50;;;;;;;11.30;8.10;;;8.50;99.90;;;;;;4126662;28;20494;-80
2022/04/24 01:35:51;;;;;;;12.97;7.90;;;8.40;99.90;;;;;;4126645;28;20525;-76
2022/04/24 01:37:56;;;;;;;12.93;8.60;;;8.40;99.90;;;;;;4126266;28;20513;-77
2022/04/24 01:39:59;;;;;;;12.07;8.10;;;8.30;99.90;;;;;;4126163;28;20558;-77
2022/04/24 01:42:00;;;;;;;11.93;7.87;;;8.30;99.90;;;;;;4125893;28;20479;-76
2022/04/24 01:44:05;;;;;;;12.20;8.50;;;8.30;99.90;;;;;;4127790;28;20517;-75
2022/04/24 01:46:08;;;;;;;11.13;7.63;;;8.30;99.90;;;;;;4130789;28;20474;-76
2022/04/24 01:48:09;;;;;;;13.77;8.47;;;8.20;99.90;;;;;;4135199;28;21154;-76
2022/04/24 01:50:11;;;;;;;12.63;8.37;;;8.20;99.90;;;;;;4130846;28;20512;-79
2022/04/24 01:52:13;;;;;;;12.30;8.30;;;8.20;99.90;;;;;;4127839;28;20558;-77
2022/04/24 01:54:16;;;;;;;11.40;7.80;;;8.20;99.90;;;;;;4122748;28;20920;-77
2022/04/24 01:56:17;;;;;;;11.97;8.17;;;8.10;99.90;;;;;;4129098;28;20533;-77
2022/04/24 01:58:19;;;;;;;11.57;7.57;;;8.10;99.90;;;;;;4127791;28;20468;-77
2022/04/24 02:00:21;;;;;;;13.37;8.27;;;8.10;99.90;;;;;;4126161;28;20483;-76
2022/04/24 02:02:23;;;;;;;12.30;8.10;;;8.10;99.90;;;;;;4126151;28;20540;-76
2022/04/24 02:04:26;;;;;;;12.90;8.57;;;8.00;99.90;;;;;;4122296;28;20510;-76
2022/04/24 02:06:27;;;;;;;13.90;8.50;;;8.00;99.90;;;;;;4127744;28;20506;-76
2022/04/24 02:08:30;;;;;;;12.30;8.10;;;7.90;99.90;;;;;;4131113;28;20488;-76
2022/04/24 02:10:33;;;;;;;15.20;8.70;;;7.90;99.90;;;;;;4133643;28;20506;-78
2022/04/24 02:12:39;;;;;;;13.97;8.37;;;7.90;99.90;;;;;;4131761;28;20469;-79
2022/04/24 02:14:41;;;;;;;12.73;7.67;;;7.90;99.90;;;;;;4130049;28;20498;-78
2022/04/24 02:16:42;;;;;;;12.70;8.60;;;7.80;99.90;;;;;;4127409;28;20509;-78
2022/04/24 02:18:44;;;;;;;12.27;8.03;;;7.80;99.90;;;;;;4128442;28;22113;-77
2022/04/24 02:20:45;;;;;;;13.53;7.77;;;7.80;99.90;;;;;;4128326;28;20520;-77
2022/04/24 02:22:47;;;;;;;14.40;8.87;;;7.70;99.90;;;;;;4132228;28;20559;-79
2022/04/24 02:24:49;;;;;;;13.20;8.40;;;7.70;99.90;;;;;;4127866;28;20493;-77
2022/04/24 02:26:52;;;;;;;12.20;7.77;;;7.70;99.90;;;;;;4129531;28;20479;-77
2022/04/24 02:28:54;;;;;;;12.77;8.30;;;7.70;99.90;;;;;;4127073;28;20482;-77
2022/04/24 02:30:56;;;;;;;15.00;8.30;;;7.60;99.90;;;;;;4124191;28;20581;-76
2022/04/24 02:32:59;;;;;;;11.87;8.03;;;7.60;99.90;;;;;;4127499;28;20524;-76
2022/04/24 02:35:00;;;;;;;16.00;8.70;;;7.60;99.90;;;;;;4126526;28;20492;-76
2022/04/24 02:37:02;;;;;;;15.70;8.30;;;7.60;99.90;;;;;;4129858;28;20479;-77
2022/04/24 02:39:04;;;;;;;13.50;8.57;;;7.60;99.90;;;;;;4128343;28;20547;-75
2022/04/24 02:41:06;;;;;;;13.63;8.07;;;7.50;99.90;;;;;;4129833;28;20887;-77
2022/04/24 02:43:10;;;;;;;15.13;8.93;;;7.50;99.90;;;;;;4129149;28;20468;-77
2022/04/24 02:45:12;;;;;;;12.90;8.10;;;7.50;99.90;;;;;;4128266;28;20548;-77
2022/04/24 02:47:13;;;;;;;13.67;8.50;;;7.50;99.90;;;;;;4124518;28;20472;-77
2022/04/24 02:49:15;;;;;;;15.57;8.00;;;7.40;99.90;;;;;;4124013;28;20506;-77
2022/04/24 02:51:17;;;;;;;12.07;7.90;;;7.40;99.90;;;;;;4127959;28;20473;-77
2022/04/24 02:53:19;;;;;;;12.73;8.57;;;7.40;99.90;;;;;;4130803;28;20836;-78
2022/04/24 02:55:22;;;;;;;13.73;7.97;;;7.40;99.90;;;;;;4131252;28;20526;-77
2022/04/24 02:57:23;;;;;;;12.47;7.87;;;7.40;99.90;;;;;;4127137;28;20473;-76
2022/04/24 02:59:29;;;;;;;13.27;8.33;;;7.30;99.90;;;;;;4127244;28;20480;-76
2022/04/24 03:01:31;;;;;;;12.30;8.27;;;7.30;99.90;;;;;;4128787;28;20459;-77
2022/04/24 03:03:33;;;;;;;13.23;8.17;;;7.30;99.90;;;;;;4128678;28;20472;-77
2022/04/24 03:05:35;;;;;;;15.10;8.87;;;7.30;99.90;;;;;;4125408;28;20877;-79
2022/04/24 03:07:36;;;;;;;15.30;8.83;;;7.30;99.90;;;;;;4162400;22;20503;-79
2022/04/24 03:09:38;;;;;;;12.40;8.17;;;7.30;99.90;;;;;;4152587;28;20464;-79
2022/04/24 03:11:40;;;;;;;14.90;8.37;;;7.20;99.90;;;;;;4152678;28;20472;-79
2022/04/24 03:13:42;;;;;;;14.27;8.00;;;7.20;99.90;;;;;;4152264;28;20490;-79
2022/04/24 03:15:45;;;;;;;12.43;7.80;;;7.20;99.90;;;;;;4153067;28;20463;-78
2022/04/24 03:17:47;;;;;;;13.63;8.50;;;7.10;99.90;;;;;;4142956;28;20480;-78
2022/04/24 03:19:48;;;;;;;13.53;8.03;;;7.10;99.90;;;;;;4144838;28;20462;-77
2022/04/24 03:21:50;;;;;;;14.07;9.37;;;7.10;99.90;;;;;;4137087;28;20468;-78
2022/04/24 03:23:52;;;;;;;14.60;9.00;;;7.10;99.90;;;;;;4139383;28;20476;-77
2022/04/24 03:25:53;;;;;;;15.23;8.67;;;7.10;99.90;;;;;;4137912;28;20508;-77
2022/04/24 03:27:55;;;;;;;12.33;7.67;;;7.10;99.90;;;;;;4140539;28;20492;-77
2022/04/24 03:29:57;;;;;;;12.43;8.03;;;7.00;99.90;;;;;;4139308;28;20488;-77
2022/04/24 03:32:00;;;;;;;13.73;8.60;;;7.10;99.90;;;;;;4139709;28;20485;-77
2022/04/24 03:34:02;;;;;;;17.73;9.43;;;7.00;99.90;;;;;;4135294;28;20553;-77
2022/04/24 03:36:04;;;;;;;14.40;8.63;;;7.00;99.90;;;;;;4137636;28;20834;-77
2022/04/24 03:38:06;;;;;;;14.30;8.93;;;7.00;99.90;;;;;;4133777;28;20493;-77
2022/04/24 03:40:09;;;;;;;15.60;8.40;;;7.00;99.90;;;;;;4136806;28;20457;-77
2022/04/24 03:42:10;;;;;;;12.40;8.00;;;6.90;99.90;;;;;;4137554;28;20503;-77
2022/04/24 03:44:12;;;;;;;16.43;8.97;;;6.90;99.90;;;;;;4136700;28;20476;-77
2022/04/24 03:46:14;;;;;;;13.80;8.17;;;6.90;99.90;;;;;;4140570;28;20468;-77
2022/04/24 03:48:17;;;;;;;13.60;8.57;;;7.00;99.90;;;;;;4137351;28;20591;-77
2022/04/24 03:50:20;;;;;;;14.47;9.10;;;6.80;99.90;;;;;;4139322;28;20601;-77
2022/04/24 03:52:21;;;;;;;14.43;8.67;;;6.90;99.90;;;;;;4136767;28;20501;-77
2022/04/24 03:54:23;;;;;;;17.17;9.10;;;6.80;99.90;;;;;;4139232;28;20488;-77
2022/04/24 03:56:25;;;;;;;13.33;8.77;;;6.80;99.90;;;;;;4138760;28;20495;-77
2022/04/24 03:58:27;;;;;;;14.70;8.70;;;6.80;99.90;;;;;;4136799;28;20534;-77
2022/04/24 04:00:29;;;;;;;13.60;9.07;;;6.80;99.90;;;;;;4136315;28;20472;-77
2022/04/24 04:02:30;;;;;;;17.50;9.70;;;6.80;99.90;;;;;;4138371;28;21002;-77
2022/04/24 04:04:34;;;;;;;15.47;9.10;;;6.70;99.90;;;;;;4140363;28;20502;-77
2022/04/24 04:06:35;;;;;;;14.70;8.97;;;6.70;99.90;;;;;;4135957;28;20471;-77
2022/04/24 04:08:37;;;;;;;14.60;8.93;;;6.70;99.90;;;;;;4139429;28;20471;-77
2022/04/24 04:10:39;;;;;;;14.43;8.57;;;6.70;99.90;;;;;;4143157;28;20530;-77
2022/04/24 04:12:41;;;;;;;14.43;8.70;;;6.70;99.90;;;;;;4139671;28;20471;-77
2022/04/24 04:14:43;;;;;;;13.17;8.83;;;6.70;99.90;;;;;;4138100;28;20509;-77
2022/04/24 04:16:44;;;;;;;14.90;9.03;;;6.70;99.90;;;;;;4136923;28;20543;-77
2022/04/24 04:18:46;;;;;;;19.77;9.10;;;6.70;99.90;;;;;;4137785;28;20534;-77
2022/04/24 04:20:50;;;;;;;16.37;9.43;;;6.70;99.90;;;;;;4139115;28;20964;-77
2022/04/24 04:22:52;;;;;;;16.73;9.70;;;6.70;99.90;;;;;;4137200;28;20899;-77
2022/04/24 04:24:54;;;;;;;13.93;8.43;;;6.60;99.90;;;;;;4139532;28;21026;-77
2022/04/24 04:26:55;;;;;;;13.07;8.33;;;6.60;99.90;;;;;;4137912;28;20492;-77
2022/04/24 04:28:57;;;;;;;12.17;7.90;;;6.60;99.90;;;;;;4138783;28;20537;-77
2022/04/24 04:30:59;;;;;;;15.40;8.87;;;6.60;99.90;;;;;;4140337;28;20573;-77
2022/04/24 04:33:01;;;;;;;13.63;8.63;;;6.60;99.90;;;;;;4136289;28;20474;-77
2022/04/24 04:35:05;;;;;;;15.93;9.07;;;6.60;99.90;;;;;;4134825;28;20502;-77
2022/04/24 04:37:08;;;;;;;18.40;8.97;;;6.60;99.90;;;;;;4138243;28;20845;-77
2022/04/24 04:39:10;;;;;;;12.93;8.90;;;6.60;99.90;;;;;;4137616;28;20471;-76
2022/04/24 04:41:12;;;;;;;18.00;9.23;;;6.60;99.90;;;;;;4139564;28;20850;-77
2022/04/24 04:43:14;;;;;;;15.37;8.73;;;6.60;99.90;;;;;;4137541;28;20470;-77
2022/04/24 04:45:16;;;;;;;17.20;9.03;;;6.70;99.90;;;;;;4138235;28;20531;-77
2022/04/24 04:47:18;;;;;;;14.50;9.20;;;6.60;99.90;;;;;;4136304;28;20880;-77
2022/04/24 04:49:19;;;;;;;17.17;9.20;;;6.60;99.90;;;;;;4135201;28;20463;-77
2022/04/24 04:51:21;;;;;;;14.97;8.83;;;6.60;99.90;;;;;;4138315;28;20866;-77
2022/04/24 04:53:24;;;;;;;13.97;9.17;;;6.60;99.90;;;;;;4136296;28;20467;-77
2022/04/24 04:55:27;;;;;;;13.77;8.60;;;6.60;99.90;;;;;;4135611;28;20926;-77
2022/04/24 04:57:28;;;;;;;16.07;8.97;;;6.60;99.90;;;;;;4135870;28;20490;-77
2022/04/24 04:59:30;;;;;;;12.93;8.57;;;6.60;99.90;;;;;;4141113;28;20479;-77
2022/04/24 05:01:32;;;;;;;17.57;9.93;;;6.60;99.90;;;;;;4135342;28;20475;-77
2022/04/24 05:03:33;;;;;;;15.57;9.17;;;6.60;99.90;;;;;;4137615;28;20529;-77
2022/04/24 05:05:35;;;;;;;18.30;9.83;;;6.60;99.90;;;;;;4135434;28;20849;-77
2022/04/24 05:07:38;;;;;;;17.57;9.93;;;6.60;99.90;;;;;;4135119;28;20502;-77
2022/04/24 05:09:41;;;;;;;14.13;8.50;;;6.60;99.90;;;;;;4138523;28;20561;-77
2022/04/24 05:11:43;;;;;;;14.77;8.90;;;6.60;99.90;;;;;;4138901;28;20463;-77
2022/04/24 05:13:44;;;;;;;14.70;9.40;;;6.60;99.90;;;;;;4139327;28;20479;-77
2022/04/24 05:15:46;;;;;;;14.77;9.03;;;6.70;99.90;;;;;;4138086;28;20490;-77
2022/04/24 05:17:48;;;;;;;13.63;8.17;;;6.70;99.90;;;;;;4137904;28;21177;-76
2022/04/24 05:19:50;;;;;;;15.67;9.27;;;6.70;99.90;;;;;;4134164;28;20509;-77
2022/04/24 05:21:52;;;;;;;16.13;8.60;;;6.70;99.90;;;;;;4136202;28;20476;-77
2022/04/24 05:23:53;;;;;;;15.93;9.20;;;6.70;99.90;;;;;;4134484;28;20492;-77
2022/04/24 05:25:58;;;;;;;14.93;9.30;;;6.70;99.90;;;;;;4137433;28;20530;-77
2022/04/24 05:28:00;;;;;;;15.30;8.97;;;6.70;99.90;;;;;;4133930;28;21124;-77
2022/04/24 05:30:02;;;;;;;18.27;9.63;;;6.90;99.90;;;;;;4137836;28;20464;-77
2022/04/24 05:32:05;;;;;;;14.90;8.70;;;7.10;99.90;;;;;;4138682;28;20547;-77
2022/04/24 05:34:08;;;;;;;14.37;9.07;;;6.80;99.90;;;;;;4138443;28;20813;-77
2022/04/24 05:36:10;;;;;;;16.83;9.57;;;6.80;99.90;;;;;;4135186;28;20465;-77
2022/04/24 05:38:12;;;;;;;15.27;9.57;;;6.80;99.90;;;;;;4138500;28;21015;-77
2022/04/24 05:40:14;;;;;;;17.43;9.30;;;6.80;99.90;;;;;;4136054;28;20868;-77
2022/04/24 05:42:17;;;;;;;15.67;8.63;;;6.90;99.90;;;;;;4137287;28;20536;-77
2022/04/24 05:44:19;;;;;;;13.93;8.90;;;6.90;99.90;;;;;;4139472;28;20464;-77
2022/04/24 05:46:21;;;;;;;14.77;8.47;;;6.90;99.90;;;;;;4137946;28;21023;-77
2022/04/24 05:48:23;;;;;;;19.83;9.97;;;7.50;99.90;;;;;;4136211;28;20961;-77
2022/04/24 05:50:25;;;;;;;15.60;8.43;;;6.90;99.90;;;;;;4136553;28;20545;-77
2022/04/24 05:52:28;;;;;;;14.17;9.03;;;7.00;99.90;;;;;;4136218;28;20529;-77
2022/04/24 05:54:30;;;;;;;14.30;8.73;;;7.00;99.90;;;;;;4133040;28;21393;-77
2022/04/24 05:56:32;;;;;;;16.93;9.30;;;7.10;99.90;;;;;;4133939;28;20475;-77
2022/04/24 05:58:35;;;;;;;16.17;9.80;;;7.10;99.90;;;;;;4132783;28;20458;-77
2022/04/24 06:00:38;;;;;;;14.63;9.47;;;7.20;99.90;;;;;;4132601;28;20471;-77
2022/04/24 06:02:40;;;;;;;14.37;9.03;;;7.30;99.90;;;;;;4137021;28;20463;-77
2022/04/24 06:04:42;;;;;;;15.50;9.07;;;7.30;99.90;;;;;;4137690;28;20471;-77
2022/04/24 06:06:44;;;;;;;13.10;8.90;;;7.30;99.90;;;;;;4135527;28;20545;-77
2022/04/24 06:08:45;;;;;;;17.53;9.27;;;7.40;99.90;;;;;;4134511;28;20555;-77
2022/04/24 06:10:47;;;;;;;15.33;9.77;;;7.40;99.90;;;;;;4137170;28;20477;-77
2022/04/24 06:12:50;;;;;;;18.93;9.90;;;7.70;99.90;;;;;;4135180;28;20496;-77
2022/04/24 06:14:53;;;;;;;15.70;10.00;;;7.60;99.90;;;;;;4135320;28;21336;-77
2022/04/24 06:16:55;;;;;;;16.17;9.60;;;7.60;99.90;;;;;;4133191;28;21015;-76
2022/04/24 06:18:57;;;;;;;16.07;9.40;;;7.70;99.90;;;;;;4135380;28;20472;-76
2022/04/24 06:20:58;;;;;;;17.77;10.13;;;7.80;99.90;;;;;;4136629;28;21137;-76
2022/04/24 06:23:01;;;;;;;15.57;9.30;;;7.80;99.90;;;;;;4136016;28;20474;-77
2022/04/24 06:25:03;;;;;;;18.57;9.40;;;7.80;99.90;;;;;;4135117;28;20461;-76
2022/04/24 06:27:05;;;;;;;20.97;9.90;;;7.90;99.90;;;;;;4139190;28;20485;-77
2022/04/24 06:29:07;;;;;;;17.03;9.93;;;8.00;99.90;;;;;;4136833;28;20481;-76
2022/04/24 06:31:10;;;;;;;16.47;10.10;;;8.10;99.90;;;;;;4136400;28;20950;-78
2022/04/24 06:33:12;;;;;;;16.03;9.30;;;8.10;99.90;;;;;;4132931;28;20503;-76
2022/04/24 06:35:16;;;;;;;18.03;9.23;;;8.20;99.90;;;;;;4134416;28;21690;-77
2022/04/24 06:37:17;;;;;;;16.73;10.17;;;8.30;99.90;;;;;;4139458;28;20589;-76
2022/04/24 06:39:19;;;;;;;18.27;10.10;;;8.40;99.90;;;;;;4134710;28;20475;-76
2022/04/24 06:41:21;;;;;;;18.57;9.83;;;8.50;99.90;;;;;;4137012;28;20468;-76
2022/04/24 06:43:23;;;;;;;16.80;10.07;;;8.50;99.90;;;;;;4135656;28;20466;-77
2022/04/24 06:45:27;;;;;;;16.07;10.00;;;8.60;99.90;;;;;;4134820;28;20931;-76
2022/04/24 06:47:30;;;;;;;16.30;10.17;;;8.70;99.90;;;;;;4133407;28;21001;-76
2022/04/24 06:49:32;;;;;;;17.43;10.00;;;8.80;99.90;;;;;;4135235;28;20466;-76
2022/04/24 06:51:34;;;;;;;15.80;9.50;;;8.90;99.90;;;;;;4133988;28;20486;-77
2022/04/24 06:53:38;;;;;;;17.10;9.70;;;9.10;99.90;;;;;;4136450;28;20874;-76
2022/04/24 06:55:41;;;;;;;22.47;10.40;;;9.10;99.90;;;;;;4138296;28;20494;-77
2022/04/24 06:57:43;;;;;;;16.53;10.53;;;9.20;99.90;;;;;;4140564;28;20726;-76
2022/04/24 06:59:44;;;;;;;19.23;11.00;;;9.40;99.90;;;;;;4139193;28;20468;-77
2022/04/24 07:01:46;;;;;;;18.27;10.60;;;9.50;99.90;;;;;;4143573;28;20467;-77
2022/04/24 07:03:49;;;;;;;17.90;10.57;;;9.50;99.90;;;;;;4139449;28;20524;-77
2022/04/24 07:05:53;;;;;;;17.57;9.73;;;9.70;99.90;;;;;;4140850;28;20204;-77
2022/04/24 07:07:55;;;;;;;18.47;11.00;;;9.70;99.90;;;;;;4134662;28;20509;-77
2022/04/24 07:09:57;;;;;;;17.60;10.30;;;9.80;99.90;;;;;;4137051;28;20475;-77
2022/04/24 07:11:58;;;;;;;20.00;10.60;;;10.00;99.90;;;;;;4137531;28;20760;-77
2022/04/24 07:14:00;;;;;;;16.80;10.67;;;10.00;99.90;;;;;;4135207;28;20470;-77
2022/04/24 07:16:02;;;;;;;19.10;10.63;;;10.10;99.90;;;;;;4138613;28;20239;-76
2022/04/24 07:18:05;;;;;;;18.67;10.93;;;10.20;99.90;;;;;;4133493;28;20547;-77
2022/04/24 07:20:09;;;;;;;16.70;9.90;;;10.30;99.90;;;;;;4137781;28;20525;-77
2022/04/24 07:22:11;;;;;;;17.87;10.80;;;10.40;99.90;;;;;;4137542;28;20207;-77
2022/04/24 07:24:12;;;;;;;18.67;10.53;;;10.40;99.90;;;;;;4135311;28;20334;-77
2022/04/24 07:26:14;;;;;;;18.73;10.87;;;10.50;99.90;;;;;;4136332;28;20209;-77
2022/04/24 07:28:18;;;;;;;15.73;10.20;;;10.60;99.90;;;;;;4136452;28;20230;-77
2022/04/24 07:30:22;;;;;;;17.40;10.73;;;10.70;99.90;;;;;;4136377;28;20243;-77
2022/04/24 07:32:24;;;;;;;19.90;11.03;;;10.80;99.90;;;;;;4136379;28;20220;-77
2022/04/24 07:34:25;;;;;;;17.13;10.50;;;10.90;99.90;;;;;;4134970;28;20220;-77
2022/04/24 07:36:28;;;;;;;17.43;10.60;;;11.00;99.90;;;;;;4136117;28;20581;-77
2022/04/24 07:38:30;;;;;;;17.70;10.07;;;11.10;99.90;;;;;;4136535;28;20217;-77
2022/04/24 07:40:35;;;;;;;16.43;9.93;;;11.20;99.90;;;;;;4137774;28;20228;-77
2022/04/24 07:42:47;;;;;;;20.50;11.20;;;11.30;99.90;;;;;;4140386;28;20220;-77
2022/04/24 07:44:51;;;;;;;15.40;9.47;;;11.40;99.90;;;;;;4137785;28;20625;-77
2022/04/24 07:46:53;;;;;;;16.87;10.27;;;11.50;99.90;;;;;;4136792;28;20237;-77
2022/04/24 07:48:54;;;;;;;17.67;10.27;;;11.60;99.70;;;;;;4135203;28;20357;-77
2022/04/24 07:50:57;;;;;;;16.83;10.40;;;11.70;99.10;;;;;;4138252;28;20263;-77
2022/04/24 07:53:01;;;;;;;15.33;10.40;;;11.80;98.00;;;;;;4135317;28;20218;-77
2022/04/24 07:55:03;;;;;;;18.97;10.47;;;11.90;96.90;;;;;;4136968;28;20277;-78
2022/04/24 07:57:06;;;;;;;15.67;10.47;;;12.00;96.20;;;;;;4137533;28;20256;-78
2022/04/24 07:59:08;;;;;;;16.00;10.33;;;12.10;95.80;;;;;;4136572;28;20279;-78
2022/04/24 08:01:11;;;;;;;18.57;10.83;;;12.20;95.30;;;;;;4138491;28;20260;-78
2022/04/24 08:03:13;;;;;;;16.73;11.00;;;12.20;94.30;;;;;;4135815;28;20219;-78
2022/04/24 08:05:20;;;;;;;15.10;10.27;;;12.30;93.70;;;;;;4132520;28;21147;-78
2022/04/24 08:07:23;;;;;;;19.40;11.37;;;12.40;93.10;;;;;;4141833;28;20266;-78
2022/04/24 08:09:26;;;;;;;15.87;10.30;;;12.60;92.80;;;;;;4138553;28;20696;-78
2022/04/24 08:11:28;;;;;;;16.57;11.10;;;12.60;91.30;;;;;;4136703;28;20234;-78
2022/04/24 08:13:30;;;;;;;14.77;10.13;;;12.70;90.00;;;;;;4135561;28;20692;-77
2022/04/24 08:15:32;;;;;;;15.03;10.30;;;12.80;86.80;;;;;;4135996;28;20317;-77
2022/04/24 08:17:34;;;;;;;17.00;10.80;;;12.80;84.80;;;;;;4137164;28;20269;-77
2022/04/24 08:19:36;;;;;;;15.87;10.13;;;12.90;83.70;;;;;;4133645;28;20210;-78
2022/04/24 08:21:38;;;;;;;14.33;10.20;;;12.90;82.60;;;;;;4138591;28;20207;-77
2022/04/24 08:23:39;;;;;;;15.10;10.17;;;13.00;82.90;;;;;;4138168;28;20637;-77
2022/04/24 08:25:43;;;;;;;16.30;10.97;;;13.10;82.10;;;;;;4134848;28;20207;-77
2022/04/24 08:27:46;;;;;;;18.20;10.83;;;13.20;82.90;;;;;;4137658;28;21123;-77
2022/04/24 08:29:48;;;;;;;17.30;10.20;;;13.40;81.80;;;;;;4139353;28;20681;-78
2022/04/24 08:31:50;;;;;;;16.60;10.57;;;13.30;79.80;;;;;;4137569;28;20219;-78
2022/04/24 08:33:53;;;;;;;15.17;10.50;;;13.40;78.60;;;;;;4135384;28;20729;-78
2022/04/24 08:35:54;;;;;;;18.83;10.50;;;13.50;78.20;;;;;;4140204;28;20317;-78
2022/04/24 08:37:56;;;;;;;14.83;9.47;;;13.60;75.30;;;;;;4134955;28;20361;-78
2022/04/24 08:39:58;;;;;;;13.00;8.90;;;13.70;74.30;;;;;;4135718;28;20749;-78
2022/04/24 08:42:02;;;;;;;13.90;9.23;;;13.80;72.50;;;;;;4136530;28;20652;-78
2022/04/24 08:44:08;;;;;;;14.77;8.93;;;13.80;70.00;;;;;;4136188;28;20223;-78
2022/04/24 08:46:10;;;;;;;15.53;9.00;;;13.90;69.50;;;;;;4137562;28;20431;-78
2022/04/24 08:48:12;;;;;;;15.33;8.87;;;14.00;69.00;;;;;;4136297;28;20235;-78
2022/04/24 08:50:14;;;;;;;14.57;9.30;;;14.20;68.80;;;;;;4136151;28;20217;-78
2022/04/24 08:52:18;;;;;;;16.33;9.33;;;14.20;66.90;;;;;;4138299;28;20588;-78
2022/04/24 08:54:21;;;;;;;13.63;8.90;;;14.20;65.00;;;;;;4135867;28;20219;-78
2022/04/24 08:56:23;;;;;;;12.73;8.83;;;14.20;62.60;;;;;;4138093;28;20242;-78
2022/04/24 08:58:26;;;;;;;16.57;9.03;;;14.20;61.70;;;;;;4137525;28;20294;-78
2022/04/24 09:00:29;;;;;;;14.43;8.83;;;14.30;61.00;;;;;;4136363;28;20220;-78
2022/04/24 09:02:31;;;;;;;15.43;8.93;;;14.30;60.80;;;;;;4139346;28;20230;-78
2022/04/24 09:04:33;;;;;;;14.73;8.90;;;14.40;59.50;;;;;;4134690;28;20768;-78
2022/04/24 09:06:35;;;;;;;11.67;8.10;;;14.40;58.40;;;;;;4139879;28;20214;-78
2022/04/24 09:08:38;;;;;;;13.53;8.67;;;14.50;58.00;;;;;;4152468;22;20244;-81
2022/04/24 09:10:50;;;;;;;13.17;8.57;;;14.50;58.30;;;;;;4136761;28;20262;-78
2022/04/24 09:12:54;;;;;;;13.17;7.97;;;14.50;57.90;;;;;;4136173;28;20218;-78
2022/04/24 09:14:58;;;;;;;12.47;8.23;;;14.50;58.20;;;;;;4139015;28;20629;-77
2022/04/24 09:17:05;;;;;;;13.53;9.10;;;14.60;58.20;;;;;;4134259;28;20302;-77
2022/04/24 09:19:16;;;;;;;16.90;9.43;;;14.60;57.80;;;;;;4137506;28;20267;-78
2022/04/24 09:21:18;;;;;;;13.37;8.30;;;14.60;57.30;;;;;;4135409;28;20211;-77
2022/04/24 09:23:20;;;;;;;10.03;7.27;;;14.70;56.80;;;;;;4138473;28;20213;-78
2022/04/24 09:25:38;;;;;;;11.70;7.93;;;14.70;56.30;;;;;;4131568;28;20212;-78
2022/04/24 09:27:40;;;;;;;9.67;7.10;;;14.80;56.30;;;;;;4128152;28;20241;-79
2022/04/24 09:29:51;;;;;;;9.60;6.87;;;14.80;56.20;;;;;;4131797;28;20512;-78
2022/04/24 09:31:55;;;;;;;12.53;6.93;;;14.80;55.30;;;;;;4134352;28;20216;-78
2022/04/24 09:33:56;;;;;;;13.13;6.17;;;14.80;54.00;;;;;;4133512;28;20224;-78
2022/04/24 09:35:59;;;;;;;9.07;5.87;;;14.90;53.40;;;;;;4138369;28;20301;-78
2022/04/24 09:38:10;;;;;;;11.17;6.27;;;14.90;51.90;;;;;;4137430;28;20298;-78
2022/04/24 09:40:12;;;;;;;11.77;6.60;;;14.90;51.40;;;;;;4138220;28;20625;-77
2022/04/24 09:42:15;;;;;;;10.53;6.80;;;14.90;51.30;;;;;;4136458;28;20304;-75
2022/04/24 09:44:17;;;;;;;11.07;6.10;;;14.90;51.30;;;;;;4133424;28;20310;-80
2022/04/24 09:46:26;;;;;;;10.23;6.77;;;14.90;51.40;;;;;;4134653;28;20217;-78
2022/04/24 09:48:30;;;;;;;9.93;6.20;;;14.90;51.70;;;;;;4128576;28;20239;-79
2022/04/24 09:50:37;;;;;;;10.93;6.53;;;14.90;52.10;;;;;;4128941;28;20564;-77
2022/04/24 09:52:45;;;;;;;10.60;5.87;;;14.90;52.90;;;;;;4131019;28;20843;-78
2022/04/24 09:54:49;;;;;;;9.80;6.30;;;14.90;57.20;;;;;;4138224;28;20338;-79
2022/04/24 09:56:52;;;;;;;10.10;6.33;;;15.00;59.40;;;;;;4137804;28;20330;-79
2022/04/24 09:58:55;;;;;;;10.23;6.43;;;14.90;65.80;;;;;;4140536;28;20819;-79
2022/04/24 10:00:58;;;;;;;10.13;6.20;;;14.90;65.20;;;;;;4134859;28;20215;-79
2022/04/24 10:03:01;;;;;;;9.20;5.80;;;14.90;64.00;;;;;;4135713;28;20333;-81
2022/04/24 10:05:06;;;;;;;8.63;6.03;;;14.90;64.30;;;;;;4132501;28;20641;-81
2022/04/24 10:07:10;;;;;;;8.90;6.30;;;15.00;68.90;;;;;;4135122;28;20208;-78
2022/04/24 10:09:13;;;;;;;9.47;6.47;;;15.00;70.90;;;;;;4132809;28;20291;-78
2022/04/24 10:11:15;;;;;;;11.03;5.93;;;15.00;72.70;;;;;;4131019;28;20621;-79
2022/04/24 10:13:19;;;;;;;9.93;5.90;;;15.00;69.00;;;;;;4131101;28;20208;-81
2022/04/24 10:15:24;;;;;;;10.13;5.90;;;15.00;69.30;;;;;;4133873;28;20286;-80
2022/04/24 10:17:38;;;;;;;7.07;5.27;;;15.00;69.30;;;;;;4133358;28;20232;-78
2022/04/24 10:19:54;;;;;;;12.20;6.37;;;15.00;69.00;;;;;;4129929;28;20223;-79
2022/04/24 10:22:04;;;;;;;8.40;5.60;;;15.00;71.90;;;;;;4129162;28;20220;-80
2022/04/24 10:24:10;;;;;;;7.27;5.07;;;15.10;66.90;;;;;;4131160;28;20252;-78
2022/04/24 10:26:19;;;;;;;8.47;5.27;;;15.10;64.10;;;;;;4131778;28;20264;-78
2022/04/24 10:28:21;;;;;;;7.63;4.90;;;15.10;64.20;;;;;;4135389;28;20239;-77
2022/04/24 10:30:25;;;;;;;8.60;4.80;;;15.10;64.00;;;;;;4134049;28;20902;-77
2022/04/24 10:32:27;;;;;;;8.93;4.97;;;15.10;64.00;;;;;;4132401;28;20572;-78
2022/04/24 10:34:39;;;;;;;8.93;4.90;;;15.20;66.10;;;;;;4133431;28;20658;-77